createdAt,value
2017-06-04T00:01:03.498Z,8.30
2017-06-04T00:03:32.454Z,8.10
2017-06-04T00:06:01.308Z,10.20
2017-06-04T00:08:30.217Z,9.90
2017-06-04T00:10:59.020Z,9.77
2017-06-04T00:13:27.927Z,10.50
2017-06-04T00:15:56.781Z,8.63
2017-06-04T00:18:25.599Z,13.00
2017-06-04T00:20:54.459Z,10.20
2017-06-04T00:23:23.264Z,9.27
2017-06-04T00:25:52.076Z,9.13
2017-06-04T00:28:20.915Z,10.47
2017-06-04T00:30:49.745Z,8.70
2017-06-04T00:33:18.564Z,9.03
2017-06-04T00:35:47.467Z,8.93
2017-06-04T00:38:16.288Z,11.87
2017-06-04T00:40:45.104Z,12.43
2017-06-04T00:43:13.947Z,8.80
2017-06-04T00:45:42.875Z,9.07
2017-06-04T00:48:11.715Z,9.73
2017-06-04T00:50:40.555Z,11.60
2017-06-04T00:53:09.369Z,11.00
2017-06-04T00:55:38.172Z,10.50
2017-06-04T00:58:07.012Z,14.40
2017-06-04T01:00:35.823Z,11.50
2017-06-04T01:03:04.640Z,13.00
2017-06-04T01:05:33.483Z,12.33
2017-06-04T01:08:02.291Z,13.10
2017-06-04T01:10:31.120Z,18.07
2017-06-04T01:12:59.981Z,15.20
2017-06-04T01:15:28.793Z,16.10
2017-06-04T01:17:57.994Z,18.43
2017-06-04T01:20:26.863Z,19.63
2017-06-04T01:22:55.732Z,16.87
2017-06-04T01:25:24.603Z,19.17
2017-06-04T01:27:53.474Z,15.57
2017-06-04T01:30:22.387Z,18.53
2017-06-04T01:32:51.219Z,19.20
2017-06-04T01:35:20.099Z,15.57
2017-06-04T01:37:48.920Z,18.20
2017-06-04T01:40:17.765Z,20.90
2017-06-04T01:42:46.623Z,18.47
2017-06-04T01:45:15.443Z,16.37
2017-06-04T01:47:44.273Z,17.43
2017-06-04T01:50:13.203Z,20.80
2017-06-04T01:52:42.029Z,18.50
2017-06-04T01:55:10.846Z,18.20
2017-06-04T01:57:39.694Z,19.93
2017-06-04T02:00:08.564Z,22.90
2017-06-04T02:02:37.384Z,18.23
2017-06-04T02:05:06.247Z,18.50
2017-06-04T02:07:35.062Z,16.00
2017-06-04T02:10:03.871Z,18.27
2017-06-04T02:12:32.716Z,16.93
2017-06-04T02:15:01.547Z,19.17
2017-06-04T02:17:30.407Z,21.07
2017-06-04T02:19:59.255Z,13.80
2017-06-04T02:22:28.071Z,12.00
2017-06-04T02:24:56.883Z,15.20
2017-06-04T02:27:25.733Z,17.37
2017-06-04T02:29:54.567Z,15.27
2017-06-04T02:32:23.351Z,18.20
2017-06-04T02:34:52.195Z,13.43
2017-06-04T02:37:21.050Z,13.90
2017-06-04T02:39:49.879Z,18.60
2017-06-04T02:42:18.744Z,15.03
2017-06-04T02:44:47.559Z,14.20
2017-06-04T02:47:16.362Z,14.73
2017-06-04T02:49:45.213Z,16.13
2017-06-04T02:52:14.072Z,14.97
2017-06-04T02:54:42.907Z,15.40
2017-06-04T02:57:11.752Z,16.20
2017-06-04T02:59:40.587Z,17.33
2017-06-04T03:02:09.393Z,14.33
2017-06-04T03:04:38.252Z,12.60
2017-06-04T03:07:07.067Z,13.87
2017-06-04T03:09:35.873Z,11.73
2017-06-04T03:12:04.736Z,13.67
2017-06-04T03:14:33.543Z,15.03
2017-06-04T03:17:02.356Z,14.87
2017-06-04T03:19:31.224Z,15.37
2017-06-04T03:22:00.036Z,15.43
2017-06-04T03:24:28.853Z,16.53
2017-06-04T03:26:57.844Z,13.17
2017-06-04T03:29:26.667Z,18.23
2017-06-04T03:31:55.476Z,17.47
2017-06-04T03:34:24.322Z,21.00
2017-06-04T03:36:53.150Z,10.50
2017-06-04T03:39:21.955Z,5.23
2017-06-04T03:41:50.840Z,11.63
2017-06-04T03:44:19.658Z,4.50
2017-06-04T03:46:48.506Z,6.10
2017-06-04T03:49:17.347Z,4.50
2017-06-04T03:51:46.148Z,5.93
2017-06-04T03:54:14.966Z,2.47
2017-06-04T03:56:43.820Z,2.60
2017-06-04T03:59:12.623Z,2.40
2017-06-04T04:01:41.421Z,4.07
2017-06-04T04:04:10.366Z,2.80
2017-06-04T04:06:39.182Z,3.93
2017-06-04T04:09:08.010Z,3.93
2017-06-04T04:11:36.846Z,2.80
2017-06-04T04:14:05.707Z,3.03
2017-06-04T04:16:34.531Z,2.80
2017-06-04T04:19:03.370Z,2.23
2017-06-04T04:21:32.168Z,2.67
2017-06-04T04:24:01.100Z,2.30
2017-06-04T04:26:29.940Z,2.53
2017-06-04T04:28:59.034Z,4.30
2017-06-04T04:31:27.884Z,3.73
2017-06-04T04:33:57.478Z,3.43
2017-06-04T04:36:26.331Z,2.90
2017-06-04T04:38:55.247Z,3.87
2017-06-04T04:41:24.169Z,3.50
2017-06-04T04:43:52.971Z,4.17
2017-06-04T04:46:21.782Z,3.50
2017-06-04T04:48:50.626Z,3.50
2017-06-04T04:51:19.437Z,3.40
2017-06-04T04:53:48.344Z,3.77
2017-06-04T04:56:17.182Z,4.83
2017-06-04T04:58:46.050Z,5.40
2017-06-04T05:01:14.883Z,5.90
2017-06-04T05:03:43.865Z,4.53
2017-06-04T05:06:12.746Z,4.27
2017-06-04T05:08:41.570Z,3.80
2017-06-04T05:11:10.411Z,4.53
2017-06-04T05:13:39.231Z,4.03
2017-06-04T05:16:08.059Z,4.23
2017-06-04T05:18:36.960Z,3.37
2017-06-04T05:21:05.767Z,3.00
2017-06-04T05:23:52.269Z,4.70
2017-06-04T05:26:21.090Z,2.73
2017-06-04T05:28:54.557Z,2.50
2017-06-04T05:31:24.134Z,2.00
2017-06-04T05:33:52.934Z,1.80
2017-06-04T05:36:21.776Z,2.73
2017-06-04T05:38:50.580Z,2.10
2017-06-04T05:41:19.446Z,3.03
2017-06-04T05:43:48.354Z,7.93
2017-06-04T05:46:17.245Z,2.80
2017-06-04T05:48:46.039Z,3.50
2017-06-04T05:51:14.911Z,2.20
2017-06-04T05:53:43.718Z,2.40
2017-06-04T05:56:12.547Z,2.70
2017-06-04T05:58:41.410Z,3.40
2017-06-04T06:01:10.269Z,3.00
2017-06-04T06:03:39.158Z,3.30
2017-06-04T06:06:08.011Z,3.37
2017-06-04T06:08:36.822Z,2.73
2017-06-04T06:11:05.643Z,2.97
2017-06-04T06:13:34.475Z,4.93
2017-06-04T06:16:03.304Z,3.20
2017-06-04T06:18:32.215Z,3.03
2017-06-04T06:21:01.111Z,3.30
2017-06-04T06:23:29.915Z,2.50
2017-06-04T06:25:58.775Z,3.67
2017-06-04T06:28:27.614Z,2.93
2017-06-04T06:30:56.414Z,4.27
2017-06-04T06:33:25.283Z,2.60
2017-06-04T06:35:54.115Z,5.57
2017-06-04T06:38:22.907Z,2.70
2017-06-04T06:40:51.725Z,2.80
2017-06-04T06:43:20.619Z,2.90
2017-06-04T06:45:50.166Z,4.40
2017-06-04T06:48:18.971Z,3.30
2017-06-04T06:50:47.867Z,3.40
2017-06-04T06:53:16.694Z,4.53
2017-06-04T06:55:45.624Z,3.20
2017-06-04T06:58:14.531Z,4.60
2017-06-04T07:00:43.342Z,2.90
2017-06-04T07:03:12.156Z,2.73
2017-06-04T07:05:41.003Z,9.23
2017-06-04T07:08:09.806Z,2.60
2017-06-04T07:10:38.711Z,3.70
2017-06-04T07:13:07.558Z,2.80
2017-06-04T07:15:36.395Z,2.40
2017-06-04T07:18:05.235Z,2.57
2017-06-04T07:20:34.162Z,2.53
2017-06-04T07:23:03.175Z,2.73
2017-06-04T07:25:32.010Z,4.30
2017-06-04T07:28:01.158Z,3.10
2017-06-04T07:30:29.978Z,3.10
2017-06-04T07:32:58.798Z,2.50
2017-06-04T07:35:27.649Z,3.00
2017-06-04T07:37:56.483Z,2.40
2017-06-04T07:40:25.312Z,2.33
2017-06-04T07:42:54.181Z,3.37
2017-06-04T07:45:23.064Z,1.90
2017-06-04T07:47:51.896Z,2.93
2017-06-04T07:50:21.727Z,2.63
2017-06-04T07:52:50.542Z,2.40
2017-06-04T07:55:19.349Z,2.37
2017-06-04T07:57:48.187Z,2.53
2017-06-04T08:00:17.011Z,2.60
2017-06-04T08:02:45.820Z,1.90
2017-06-04T08:05:14.676Z,2.47
2017-06-04T08:07:43.502Z,2.40
2017-06-04T08:10:12.333Z,1.70
2017-06-04T08:12:41.182Z,1.80
2017-06-04T08:15:10.110Z,1.73
2017-06-04T08:17:38.992Z,1.97
2017-06-04T08:20:08.681Z,2.90
2017-06-04T08:22:37.499Z,4.20
2017-06-04T08:25:06.307Z,1.93
2017-06-04T08:27:35.235Z,1.60
2017-06-04T08:30:04.550Z,1.40
2017-06-04T08:32:33.360Z,1.77
2017-06-04T08:35:02.194Z,1.47
2017-06-04T08:37:31.025Z,2.27
2017-06-04T08:39:59.831Z,1.40
2017-06-04T08:42:28.703Z,1.37
2017-06-04T08:44:57.519Z,1.30
2017-06-04T08:47:26.317Z,1.30
2017-06-04T08:49:55.180Z,1.10
2017-06-04T08:52:24.077Z,1.80
2017-06-04T08:54:52.889Z,1.30
2017-06-04T08:57:21.747Z,1.10
2017-06-04T08:59:50.562Z,2.23
2017-06-04T09:02:19.378Z,1.20
2017-06-04T09:04:48.343Z,2.13
2017-06-04T09:07:17.185Z,1.40
2017-06-04T09:09:46.387Z,2.13
2017-06-04T09:12:15.287Z,1.40
2017-06-04T09:14:44.083Z,2.37
2017-06-04T09:17:12.892Z,1.40
2017-06-04T09:19:42.385Z,1.30
2017-06-04T09:22:11.181Z,1.50
2017-06-04T09:24:40.031Z,1.83
2017-06-04T09:27:08.941Z,5.40
2017-06-04T09:29:37.756Z,1.73
2017-06-04T09:32:06.563Z,1.90
2017-06-04T09:34:35.437Z,2.77
2017-06-04T09:37:04.235Z,3.57
2017-06-04T09:39:33.047Z,1.90
2017-06-04T09:42:01.883Z,3.53
2017-06-04T09:44:30.715Z,1.53
2017-06-04T09:46:59.515Z,1.67
2017-06-04T09:49:28.381Z,1.43
2017-06-04T09:51:57.175Z,1.50
2017-06-04T09:54:25.986Z,1.40
2017-06-04T09:56:54.852Z,1.40
2017-06-04T09:59:23.687Z,1.40
2017-06-04T10:01:52.531Z,1.20
2017-06-04T10:04:21.367Z,1.57
2017-06-04T10:06:50.199Z,1.60
2017-06-04T10:09:20.047Z,1.10
2017-06-04T10:11:48.976Z,1.87
2017-06-04T10:14:18.351Z,1.37
2017-06-04T10:16:47.164Z,1.23
2017-06-04T10:19:16.031Z,9.10
2017-06-04T10:21:44.871Z,7.30
2017-06-04T10:24:13.765Z,6.33
2017-06-04T10:26:42.610Z,2.90
2017-06-04T10:29:11.419Z,4.03
2017-06-04T10:31:40.237Z,3.00
2017-06-04T10:34:09.099Z,2.00
2017-06-04T10:36:37.921Z,4.70
2017-06-04T10:39:06.761Z,2.40
2017-06-04T10:41:35.659Z,2.70
2017-06-04T10:44:04.463Z,2.60
2017-06-04T10:46:33.273Z,2.87
2017-06-04T10:49:02.179Z,3.40
2017-06-04T10:51:30.983Z,3.30
2017-06-04T11:06:57.665Z,3.43
2017-06-04T11:09:26.507Z,3.50
2017-06-04T11:11:55.320Z,2.93
2017-06-04T11:14:24.160Z,3.30
2017-06-04T11:16:53.029Z,3.53
2017-06-04T11:19:21.857Z,4.40
2017-06-04T11:21:50.851Z,2.90
2017-06-04T11:24:19.689Z,4.10
2017-06-04T11:26:48.510Z,4.03
2017-06-04T11:29:17.335Z,3.80
2017-06-04T11:31:46.220Z,3.40
2017-06-04T11:34:15.030Z,3.83
2017-06-04T11:36:43.903Z,4.03
2017-06-04T11:39:12.727Z,3.80
2017-06-04T11:41:41.558Z,4.50
2017-06-04T11:44:10.478Z,4.63
2017-06-04T11:46:39.323Z,4.80
2017-06-04T11:49:08.124Z,4.77
2017-06-04T11:51:36.975Z,5.37
2017-06-04T11:54:05.798Z,5.03
2017-06-04T11:56:34.646Z,5.50
2017-06-04T11:59:03.516Z,10.63
2017-06-04T12:01:32.534Z,6.07
2017-06-04T12:04:01.340Z,4.73
2017-06-04T12:06:30.196Z,5.27
2017-06-04T12:08:59.049Z,3.37
2017-06-04T12:11:28.351Z,2.67
2017-06-04T12:13:57.224Z,3.87
2017-06-04T12:16:26.030Z,3.93
2017-06-04T12:18:55.086Z,4.20
2017-06-04T12:21:24.030Z,3.10
2017-06-04T12:23:52.846Z,2.90
2017-06-04T12:26:21.650Z,2.83
2017-06-04T12:28:50.537Z,2.33
2017-06-04T12:31:19.392Z,2.37
2017-06-04T12:33:48.296Z,2.83
2017-06-04T12:36:17.148Z,2.60
2017-06-04T12:38:45.950Z,2.20
2017-06-04T12:41:14.775Z,2.40
2017-06-04T12:43:43.608Z,2.50
2017-06-04T12:46:12.471Z,2.30
2017-06-04T12:48:41.387Z,2.50
2017-06-04T12:51:10.234Z,3.20
2017-06-04T12:53:39.075Z,2.10
2017-06-04T12:56:07.894Z,2.77
2017-06-04T12:58:36.787Z,1.57
2017-06-04T13:01:05.587Z,3.93
2017-06-04T13:03:34.390Z,3.40
2017-06-04T13:06:03.249Z,2.93
2017-06-04T13:08:32.070Z,3.70
2017-06-04T13:11:00.968Z,3.90
2017-06-04T13:13:29.821Z,3.93
2017-06-04T13:15:58.656Z,3.60
2017-06-04T13:18:27.446Z,3.87
2017-06-04T13:20:56.905Z,3.67
2017-06-04T13:23:26.339Z,3.57
2017-06-04T13:25:55.154Z,2.83
2017-06-04T13:28:24.778Z,3.90
2017-06-04T13:30:53.589Z,4.40
2017-06-04T13:33:22.447Z,3.00
2017-06-04T13:35:51.284Z,3.20
2017-06-04T13:38:20.094Z,3.47
2017-06-04T13:40:49.082Z,3.73
2017-06-04T13:43:18.003Z,3.03
2017-06-04T13:45:46.874Z,4.20
2017-06-04T13:48:15.728Z,3.50
2017-06-04T13:50:44.607Z,3.40
2017-06-04T13:53:13.412Z,3.00
2017-06-04T13:55:42.226Z,2.87
2017-06-04T13:58:11.067Z,2.50
2017-06-04T14:00:39.891Z,2.87
2017-06-04T14:03:08.691Z,2.53
2017-06-04T14:05:37.602Z,2.93
2017-06-04T14:08:06.435Z,2.60
2017-06-04T14:10:35.246Z,2.40
2017-06-04T14:13:04.087Z,3.40
2017-06-04T14:15:32.906Z,2.73
2017-06-04T14:18:01.725Z,2.80
2017-06-04T14:20:30.581Z,3.73
2017-06-04T14:22:59.374Z,5.17
2017-06-04T14:25:28.222Z,3.83
2017-06-04T14:27:57.066Z,3.13
2017-06-04T14:30:25.886Z,3.40
2017-06-04T14:32:54.698Z,3.07
2017-06-04T14:35:23.756Z,2.90
2017-06-04T14:37:52.568Z,3.10
2017-06-04T14:40:21.370Z,2.90
2017-06-04T14:42:50.318Z,6.53
2017-06-04T14:45:19.139Z,4.33
2017-06-04T14:47:47.956Z,3.83
2017-06-04T14:50:16.792Z,5.00
2017-06-04T14:52:45.616Z,3.30
2017-06-04T14:55:14.448Z,3.93
2017-06-04T14:57:43.296Z,4.83
2017-06-04T15:00:12.122Z,3.53
2017-06-04T15:02:40.925Z,4.17
2017-06-04T15:05:09.771Z,3.03
2017-06-04T15:07:38.606Z,3.30
2017-06-04T15:10:07.412Z,3.90
2017-06-04T15:12:36.237Z,4.60
2017-06-04T15:15:05.049Z,3.13
2017-06-04T15:17:33.851Z,2.83
2017-06-04T15:20:02.974Z,3.07
2017-06-04T15:22:31.772Z,3.03
2017-06-04T15:25:00.587Z,4.23
2017-06-04T15:27:29.455Z,2.90
2017-06-04T15:29:58.278Z,3.60
2017-06-04T15:32:27.090Z,3.30
2017-06-04T15:34:56.050Z,3.13
2017-06-04T15:37:24.855Z,3.00
2017-06-04T15:39:53.665Z,2.87
2017-06-04T15:42:22.502Z,4.23
2017-06-04T15:44:51.303Z,4.20
2017-06-04T15:47:20.122Z,3.63
2017-06-04T15:49:48.971Z,3.60
2017-06-04T15:52:17.790Z,3.07
2017-06-04T15:54:46.600Z,3.77
2017-06-04T15:57:15.467Z,3.80
2017-06-04T15:59:44.277Z,3.50
2017-06-04T16:02:13.091Z,3.13
2017-06-04T16:04:41.939Z,4.10
2017-06-04T16:07:10.780Z,3.23
2017-06-04T16:09:39.627Z,3.60
2017-06-04T16:12:08.463Z,3.03
2017-06-04T16:14:37.279Z,3.53
2017-06-04T16:17:06.091Z,3.33
2017-06-04T16:19:34.939Z,3.20
2017-06-04T16:22:03.750Z,2.53
2017-06-04T16:24:32.619Z,5.87
2017-06-04T16:27:01.458Z,3.07
2017-06-04T16:29:30.277Z,4.50
2017-06-04T16:31:59.081Z,4.00
2017-06-04T16:34:27.991Z,3.40
2017-06-04T16:36:56.794Z,4.50
2017-06-04T16:39:25.591Z,7.50
2017-06-04T16:41:54.462Z,5.90
2017-06-04T16:44:23.299Z,6.23
2017-06-04T16:46:52.134Z,3.10
2017-06-04T16:49:20.999Z,4.00
2017-06-04T16:51:49.794Z,3.90
2017-06-04T16:54:18.671Z,3.00
2017-06-04T16:56:47.516Z,3.33
2017-06-04T16:59:16.327Z,2.50
2017-06-04T17:01:45.136Z,3.20
2017-06-04T17:04:14.031Z,2.50
2017-06-04T17:06:42.872Z,2.33
2017-06-04T17:09:11.691Z,5.43
2017-06-04T17:11:40.523Z,3.83
2017-06-04T17:14:09.322Z,3.10
2017-06-04T17:16:38.123Z,3.97
2017-06-04T17:19:07.073Z,2.63
2017-06-04T17:21:35.868Z,2.80
2017-06-04T17:24:04.675Z,3.90
2017-06-04T17:26:33.568Z,2.70
2017-06-04T17:29:02.390Z,5.03
2017-06-04T17:31:31.369Z,3.77
2017-06-04T17:34:00.211Z,3.17
2017-06-04T17:36:29.035Z,3.23
2017-06-04T17:38:58.109Z,4.17
2017-06-04T17:41:27.184Z,2.57
2017-06-04T17:43:55.995Z,4.00
2017-06-04T17:46:24.807Z,4.33
2017-06-04T17:48:53.674Z,3.13
2017-06-04T17:51:22.506Z,3.60
2017-06-04T17:53:51.299Z,3.10
2017-06-04T17:56:20.144Z,5.60
2017-06-04T17:58:49.018Z,6.40
2017-06-04T18:01:17.854Z,2.80
2017-06-04T18:03:46.739Z,2.40
2017-06-04T18:06:15.546Z,2.70
2017-06-04T18:08:44.343Z,2.90
2017-06-04T18:11:13.179Z,3.20
2017-06-04T18:13:41.991Z,4.73
2017-06-04T18:16:10.819Z,2.80
2017-06-04T18:18:39.683Z,3.30
2017-06-04T18:21:08.522Z,3.90
2017-06-04T18:23:42.300Z,3.20
2017-06-04T18:26:11.095Z,6.23
2017-06-04T18:28:39.934Z,3.13
2017-06-04T18:31:08.775Z,3.30
2017-06-04T18:33:37.815Z,3.00
2017-06-04T18:36:06.631Z,3.10
2017-06-04T18:38:35.483Z,4.20
2017-06-04T18:41:04.303Z,3.77
2017-06-04T18:43:33.153Z,3.17
2017-06-04T18:46:02.007Z,3.80
2017-06-04T18:48:30.831Z,5.37
2017-06-04T18:50:59.647Z,3.70
2017-06-04T18:53:28.500Z,6.30
2017-06-04T18:55:57.350Z,3.50
2017-06-04T18:58:26.160Z,4.43
2017-06-04T19:00:55.014Z,6.47
2017-06-04T19:03:23.824Z,3.47
2017-06-04T19:05:52.721Z,3.43
2017-06-04T19:08:22.716Z,3.00
2017-06-04T19:10:53.275Z,3.20
2017-06-04T19:13:22.789Z,3.97
2017-06-04T19:15:51.622Z,3.03
2017-06-04T19:18:20.423Z,3.27
2017-06-04T19:20:49.281Z,3.87
2017-06-04T19:23:18.085Z,5.00
2017-06-04T19:25:47.296Z,3.83
2017-06-04T19:28:16.191Z,3.23
2017-06-04T19:30:45.123Z,4.50
2017-06-04T19:33:15.696Z,3.97
2017-06-04T19:35:46.302Z,3.23
2017-06-04T19:38:15.639Z,6.00
2017-06-04T19:40:44.974Z,3.50
2017-06-04T19:43:16.339Z,4.87
2017-06-04T19:45:46.863Z,4.23
2017-06-04T19:48:16.464Z,4.17
2017-06-04T19:50:46.312Z,6.33
2017-06-04T19:53:15.123Z,2.70
2017-06-04T19:55:44.652Z,3.83
2017-06-04T19:58:15.898Z,6.57
2017-06-04T20:00:44.742Z,4.87
2017-06-04T20:03:16.017Z,6.63
2017-06-04T20:05:46.239Z,4.60
2017-06-04T20:08:15.259Z,3.50
2017-06-04T20:10:44.118Z,5.03
2017-06-04T20:13:12.961Z,4.60
2017-06-04T20:15:41.810Z,6.90
2017-06-04T20:18:11.136Z,4.50
2017-06-04T20:20:39.997Z,6.17
2017-06-04T20:23:08.838Z,7.27
2017-06-04T20:25:37.665Z,5.93
2017-06-04T20:28:08.454Z,5.30
2017-06-04T20:30:38.412Z,4.87
2017-06-04T20:33:09.337Z,4.30
2017-06-04T20:35:39.537Z,4.43
2017-06-04T20:38:09.283Z,4.30
2017-06-04T20:40:38.361Z,5.63
2017-06-04T20:43:08.306Z,7.40
2017-06-04T20:45:37.887Z,6.83
2017-06-04T20:48:07.907Z,12.10
2017-06-04T20:50:37.432Z,8.43
2017-06-04T20:53:08.028Z,7.17
2017-06-04T20:55:38.482Z,10.10
2017-06-04T20:58:07.521Z,6.43
2017-06-04T21:00:36.410Z,7.07
2017-06-04T21:03:05.313Z,7.57
2017-06-04T21:05:35.691Z,8.20
2017-06-04T21:08:05.897Z,9.50
2017-06-04T21:10:34.801Z,6.30
2017-06-04T21:13:03.731Z,8.07
2017-06-04T21:15:33.098Z,8.47
2017-06-04T21:18:02.007Z,8.17
2017-06-04T21:20:33.594Z,6.20
2017-06-04T21:23:04.410Z,9.83
2017-06-04T21:25:34.803Z,5.97
2017-06-04T21:28:04.971Z,6.47
2017-06-04T21:30:35.258Z,6.80
2017-06-04T21:33:05.474Z,8.50
2017-06-04T21:35:35.669Z,6.20
2017-06-04T21:38:05.905Z,5.63
2017-06-04T21:40:38.201Z,6.83
2017-06-04T21:43:07.046Z,6.33
2017-06-04T21:45:35.980Z,8.40
2017-06-04T21:48:05.338Z,16.50
2017-06-04T21:50:34.387Z,7.10
2017-06-04T21:53:04.423Z,8.20
2017-06-04T21:55:33.283Z,6.10
2017-06-04T21:58:02.903Z,5.90
2017-06-04T22:00:31.748Z,5.90
2017-06-04T22:03:00.596Z,5.10
2017-06-04T22:05:30.893Z,6.23
2017-06-04T22:08:00.974Z,6.90
2017-06-04T22:10:31.723Z,10.63
2017-06-04T22:13:00.527Z,5.20
2017-06-04T22:15:29.362Z,9.40
2017-06-04T22:17:58.220Z,7.03
2017-06-04T22:20:27.079Z,7.17
2017-06-04T22:22:55.891Z,8.73
2017-06-04T22:25:24.762Z,9.60
2017-06-04T22:27:53.606Z,10.00
2017-06-04T22:30:22.415Z,12.07
2017-06-04T22:32:51.287Z,10.30
2017-06-04T22:35:20.096Z,8.77
2017-06-04T22:37:49.899Z,7.97
2017-06-04T22:40:18.759Z,8.53
2017-06-04T22:42:47.570Z,6.13
2017-06-04T22:45:16.503Z,7.10
2017-06-04T22:47:45.358Z,5.97
2017-06-04T22:50:14.174Z,9.97
2017-06-04T22:52:43.016Z,7.50
2017-06-04T22:55:11.847Z,7.27
2017-06-04T22:57:40.663Z,7.83
2017-06-04T23:00:09.461Z,8.17
2017-06-04T23:02:38.303Z,5.93
2017-06-04T23:05:07.850Z,7.60
2017-06-04T23:07:36.671Z,13.00
2017-06-04T23:10:05.529Z,8.50
2017-06-04T23:12:34.342Z,7.10
2017-06-04T23:15:03.142Z,8.20
2017-06-04T23:17:31.998Z,9.03
2017-06-04T23:20:00.856Z,10.33
2017-06-04T23:22:29.694Z,6.70
2017-06-04T23:24:58.559Z,9.60
2017-06-04T23:27:27.459Z,10.60
2017-06-04T23:29:56.284Z,7.33
2017-06-04T23:32:25.207Z,8.53
2017-06-04T23:34:54.043Z,6.60
2017-06-04T23:37:22.863Z,6.40
2017-06-04T23:39:51.820Z,7.33
2017-06-04T23:42:20.633Z,9.33
2017-06-04T23:44:49.463Z,6.93
2017-06-04T23:47:18.295Z,8.30
2017-06-04T23:49:47.104Z,8.00
2017-06-04T23:52:15.911Z,7.17
2017-06-04T23:54:44.767Z,7.23
2017-06-04T23:57:13.583Z,8.93
2017-06-04T23:59:42.390Z,6.17
